createdAt,value
2023-10-29T00:00:32.563Z,2.50
2023-10-29T00:03:00.199Z,3.25
2023-10-29T00:05:27.943Z,3.15
2023-10-29T00:07:55.432Z,2.95
2023-10-29T00:10:23.076Z,2.95
2023-10-29T00:12:50.512Z,2.80
2023-10-29T00:15:17.952Z,3.55
2023-10-29T00:17:45.424Z,3.38
2023-10-29T00:20:12.973Z,2.60
2023-10-29T00:22:40.352Z,2.85
2023-10-29T00:25:07.863Z,2.55
2023-10-29T00:27:35.424Z,2.53
2023-10-29T00:30:02.775Z,3.10
2023-10-29T00:32:30.345Z,2.55
2023-10-29T00:34:58.588Z,2.97
2023-10-29T00:37:26.778Z,2.70
2023-10-29T00:39:54.147Z,3.20
2023-10-29T00:42:21.534Z,3.40
2023-10-29T00:44:49.183Z,2.47
2023-10-29T00:47:16.742Z,2.95
2023-10-29T00:49:44.139Z,2.78
2023-10-29T00:52:11.494Z,2.83
2023-10-29T00:54:39.048Z,2.50
2023-10-29T00:57:06.752Z,2.83
2023-10-29T00:59:35.730Z,2.60
2023-10-29T01:02:03.502Z,2.28
2023-10-29T01:04:30.884Z,2.20
2023-10-29T01:06:58.273Z,2.75
2023-10-29T01:09:25.682Z,2.22
2023-10-29T01:11:53.257Z,1.98
2023-10-29T01:14:20.795Z,1.98
2023-10-29T01:16:48.196Z,1.80
2023-10-29T01:19:15.719Z,2.42
2023-10-29T01:21:43.068Z,2.40
2023-10-29T01:24:10.579Z,2.92
2023-10-29T01:26:37.996Z,2.30
2023-10-29T01:29:05.827Z,3.42
2023-10-29T01:31:33.349Z,2.40
2023-10-29T01:34:00.779Z,2.15
2023-10-29T01:36:28.207Z,2.40
2023-10-29T01:38:55.698Z,2.88
2023-10-29T01:41:23.224Z,2.10
2023-10-29T01:43:50.618Z,2.03
2023-10-29T01:46:17.970Z,2.00
2023-10-29T01:48:45.402Z,2.20
2023-10-29T01:51:12.757Z,2.15
2023-10-29T01:53:40.240Z,2.20
2023-10-29T01:56:08.740Z,2.30
2023-10-29T01:58:36.725Z,2.70
2023-10-29T02:01:10.002Z,2.22
2023-10-29T02:03:37.517Z,2.65
2023-10-29T02:06:05.509Z,2.20
2023-10-29T02:08:34.075Z,2.38
2023-10-29T02:11:01.633Z,1.90
2023-10-29T02:13:29.005Z,2.25
2023-10-29T02:15:56.452Z,2.13
2023-10-29T02:18:23.898Z,2.95
2023-10-29T02:20:51.432Z,2.00
2023-10-29T02:23:18.822Z,2.10
2023-10-29T02:25:46.161Z,2.28
2023-10-29T02:28:13.588Z,3.10
2023-10-29T02:30:40.974Z,2.42
2023-10-29T02:33:08.595Z,2.13
2023-10-29T02:35:36.016Z,2.20
2023-10-29T02:38:03.712Z,2.17
2023-10-29T02:40:31.102Z,1.83
2023-10-29T02:42:59.004Z,1.80
2023-10-29T02:45:26.492Z,2.10
2023-10-29T02:47:55.703Z,1.90
2023-10-29T02:50:23.235Z,1.42
2023-10-29T02:52:50.714Z,1.73
2023-10-29T02:55:18.089Z,1.83
2023-10-29T02:57:45.453Z,2.03
2023-10-29T03:00:20.228Z,1.80
2023-10-29T03:02:48.270Z,1.25
2023-10-29T03:05:15.906Z,1.80
2023-10-29T03:07:43.269Z,1.70
2023-10-29T03:10:11.043Z,2.30
2023-10-29T03:12:38.400Z,2.13
2023-10-29T03:15:06.037Z,1.67
2023-10-29T03:17:33.645Z,1.70
2023-10-29T03:20:01.104Z,1.70
2023-10-29T03:22:28.534Z,1.70
2023-10-29T03:24:55.928Z,1.60
2023-10-29T03:27:23.327Z,1.58
2023-10-29T03:29:50.984Z,1.58
2023-10-29T03:32:18.387Z,1.63
2023-10-29T03:34:45.892Z,1.73
2023-10-29T03:37:13.376Z,1.33
2023-10-29T03:39:40.736Z,1.95
2023-10-29T03:42:08.186Z,1.23
2023-10-29T03:44:35.575Z,1.58
2023-10-29T03:47:03.113Z,2.30
2023-10-29T03:49:30.484Z,1.50
2023-10-29T03:51:57.874Z,1.70
2023-10-29T03:54:25.828Z,1.65
2023-10-29T03:56:53.276Z,1.90
2023-10-29T03:59:20.789Z,1.80
2023-10-29T04:01:48.410Z,1.98
2023-10-29T04:04:16.720Z,1.65
2023-10-29T04:06:44.603Z,1.50
2023-10-29T04:09:12.074Z,1.60
2023-10-29T04:11:40.028Z,1.42
2023-10-29T04:14:07.480Z,1.88
2023-10-29T04:16:35.365Z,2.05
2023-10-29T04:19:02.746Z,1.58
2023-10-29T04:21:30.100Z,1.80
2023-10-29T04:23:57.541Z,1.63
2023-10-29T04:26:25.058Z,1.45
2023-10-29T04:28:52.429Z,1.60
2023-10-29T04:31:19.829Z,1.38
2023-10-29T04:33:50.109Z,1.45
2023-10-29T04:36:23.935Z,1.38
2023-10-29T04:38:51.627Z,1.52
2023-10-29T04:41:19.343Z,1.83
2023-10-29T04:43:46.783Z,1.80
2023-10-29T04:46:14.485Z,1.58
2023-10-29T04:48:42.556Z,1.70
2023-10-29T04:51:10.911Z,2.58
2023-10-29T04:53:38.851Z,1.30
2023-10-29T04:56:07.288Z,1.83
2023-10-29T04:58:34.662Z,1.80
2023-10-29T05:01:02.056Z,1.85
2023-10-29T05:03:29.522Z,1.77
2023-10-29T05:05:57.274Z,2.00
2023-10-29T05:08:24.751Z,1.65
2023-10-29T05:10:52.714Z,1.70
2023-10-29T05:13:20.058Z,1.70
2023-10-29T05:15:47.427Z,1.63
2023-10-29T05:18:15.075Z,1.60
2023-10-29T05:20:42.636Z,1.55
2023-10-29T05:23:11.555Z,1.60
2023-10-29T05:25:40.588Z,1.67
2023-10-29T05:28:08.160Z,1.70
2023-10-29T05:30:35.670Z,1.58
2023-10-29T05:33:03.631Z,1.75
2023-10-29T05:35:31.106Z,1.88
2023-10-29T05:37:58.557Z,1.80
2023-10-29T05:40:26.043Z,1.50
2023-10-29T05:42:53.679Z,1.83
2023-10-29T05:45:21.050Z,1.55
2023-10-29T05:47:48.479Z,1.75
2023-10-29T05:50:16.036Z,1.50
2023-10-29T05:52:44.144Z,1.90
2023-10-29T05:55:11.502Z,2.00
2023-10-29T05:57:38.968Z,1.75
2023-10-29T06:00:06.965Z,1.73
2023-10-29T06:02:34.767Z,1.90
2023-10-29T06:05:02.163Z,1.60
2023-10-29T06:07:29.698Z,1.85
2023-10-29T06:09:57.425Z,1.60
2023-10-29T06:12:25.357Z,1.50
2023-10-29T06:14:52.734Z,1.60
2023-10-29T06:17:26.846Z,1.42
2023-10-29T06:19:55.076Z,1.90
2023-10-29T06:22:22.628Z,2.03
2023-10-29T06:24:50.169Z,1.92
2023-10-29T06:27:17.739Z,1.58
2023-10-29T06:29:45.180Z,2.25
2023-10-29T06:32:12.609Z,1.40
2023-10-29T06:34:39.982Z,1.50
2023-10-29T06:37:07.345Z,1.90
2023-10-29T06:39:34.826Z,1.58
2023-10-29T06:42:02.325Z,1.48
2023-10-29T06:44:29.767Z,2.00
2023-10-29T06:46:57.175Z,1.92
2023-10-29T06:49:24.555Z,1.45
2023-10-29T06:51:52.080Z,1.50
2023-10-29T06:54:19.588Z,1.60
2023-10-29T06:56:47.008Z,1.60
2023-10-29T06:59:14.592Z,1.80
2023-10-29T07:01:42.102Z,1.70
2023-10-29T07:04:09.633Z,1.67
2023-10-29T07:06:37.124Z,1.60
2023-10-29T07:09:05.446Z,2.17
2023-10-29T07:11:32.937Z,2.00
2023-10-29T07:14:00.351Z,1.83
2023-10-29T07:16:27.736Z,1.50
2023-10-29T07:18:55.237Z,1.63
2023-10-29T07:21:22.630Z,2.00
2023-10-29T07:23:50.048Z,2.05
2023-10-29T07:26:17.425Z,1.90
2023-10-29T07:28:44.861Z,2.22
2023-10-29T07:31:15.081Z,2.10
2023-10-29T07:33:42.921Z,1.70
2023-10-29T07:36:10.358Z,2.00
2023-10-29T07:38:37.772Z,1.77
2023-10-29T07:41:05.186Z,1.40
2023-10-29T07:43:32.549Z,1.65
2023-10-29T07:46:03.382Z,1.65
2023-10-29T07:48:31.167Z,1.42
2023-10-29T07:50:59.944Z,1.80
2023-10-29T07:53:29.416Z,4.18
2023-10-29T07:55:56.945Z,1.70
2023-10-29T07:58:24.335Z,1.45
2023-10-29T08:00:51.702Z,0.90
2023-10-29T08:03:19.833Z,1.20
2023-10-29T08:05:52.945Z,1.27
2023-10-29T08:08:20.538Z,1.23
2023-10-29T08:10:47.917Z,1.15
2023-10-29T08:13:15.368Z,1.50
2023-10-29T08:15:43.906Z,2.60
2023-10-29T08:18:11.795Z,1.50
2023-10-29T08:20:39.478Z,1.20
2023-10-29T08:23:06.919Z,1.63
2023-10-29T08:25:36.783Z,1.30
2023-10-29T08:28:04.354Z,1.65
2023-10-29T08:30:31.803Z,1.40
2023-10-29T08:32:59.390Z,1.40
2023-10-29T08:35:26.842Z,1.20
2023-10-29T08:37:54.491Z,1.30
2023-10-29T08:40:21.840Z,1.20
2023-10-29T08:42:49.265Z,1.10
2023-10-29T08:45:24.348Z,0.95
2023-10-29T08:47:58.347Z,0.60
2023-10-29T08:50:25.803Z,0.70
2023-10-29T08:52:53.171Z,1.35
2023-10-29T08:55:20.667Z,0.90
2023-10-29T08:57:48.043Z,0.57
2023-10-29T09:00:15.696Z,0.70
2023-10-29T09:02:43.345Z,2.13
2023-10-29T09:05:11.473Z,0.70
2023-10-29T09:07:38.912Z,0.60
2023-10-29T09:10:06.578Z,0.88
2023-10-29T09:12:33.912Z,1.23
2023-10-29T09:15:01.392Z,1.10
2023-10-29T09:17:28.853Z,1.20
2023-10-29T09:19:56.303Z,0.88
2023-10-29T09:22:23.666Z,0.88
2023-10-29T09:24:51.247Z,0.95
2023-10-29T09:27:18.608Z,0.95
2023-10-29T09:29:46.031Z,0.82
2023-10-29T09:32:15.382Z,0.70
2023-10-29T09:34:43.385Z,1.20
2023-10-29T09:37:10.901Z,1.08
2023-10-29T09:39:38.712Z,0.52
2023-10-29T09:42:09.940Z,0.80
2023-10-29T09:44:41.274Z,0.60
2023-10-29T09:47:15.730Z,0.93
2023-10-29T09:49:43.218Z,1.52
2023-10-29T09:52:11.359Z,0.70
2023-10-29T09:54:40.634Z,0.85
2023-10-29T09:57:09.114Z,1.08
2023-10-29T09:59:36.713Z,0.73
2023-10-29T10:02:04.905Z,0.68
2023-10-29T10:04:32.281Z,0.75
2023-10-29T10:07:00.866Z,1.10
2023-10-29T10:09:29.599Z,0.80
2023-10-29T10:12:06.724Z,0.70
2023-10-29T10:14:34.403Z,0.70
2023-10-29T10:17:14.286Z,0.85
2023-10-29T10:19:42.528Z,0.80
2023-10-29T10:22:10.600Z,0.60
2023-10-29T10:24:46.881Z,0.60
2023-10-29T10:27:16.427Z,0.80
2023-10-29T10:29:43.904Z,1.40
2023-10-29T10:32:12.269Z,0.82
2023-10-29T10:34:51.867Z,0.60
2023-10-29T10:37:19.396Z,0.47
2023-10-29T10:39:46.884Z,0.95
2023-10-29T10:42:14.290Z,0.75
2023-10-29T10:44:43.913Z,0.70
2023-10-29T10:47:11.605Z,0.80
2023-10-29T10:49:42.647Z,0.70
2023-10-29T10:52:11.074Z,0.60
2023-10-29T10:54:38.744Z,0.70
2023-10-29T10:57:07.148Z,0.73
2023-10-29T10:59:36.848Z,0.50
2023-10-29T11:02:09.100Z,0.80
2023-10-29T11:04:37.362Z,0.80
2023-10-29T11:07:04.900Z,0.77
2023-10-29T11:09:33.104Z,0.95
2023-10-29T11:12:00.686Z,0.70
2023-10-29T11:14:28.262Z,1.10
2023-10-29T11:16:56.869Z,0.70
2023-10-29T11:19:37.139Z,0.95
2023-10-29T11:22:33.631Z,0.82
2023-10-29T11:25:09.462Z,1.00
2023-10-29T11:27:45.604Z,0.95
2023-10-29T11:30:21.322Z,1.00
2023-10-29T11:33:11.878Z,1.13
2023-10-29T11:35:39.551Z,1.50
2023-10-29T11:38:25.540Z,1.10
2023-10-29T11:40:52.924Z,2.08
2023-10-29T11:43:23.605Z,1.15
2023-10-29T11:45:58.204Z,0.63
2023-10-29T11:48:26.923Z,0.77
2023-10-29T11:51:07.447Z,1.00
2023-10-29T11:53:35.028Z,0.82
2023-10-29T11:56:06.101Z,0.73
2023-10-29T11:58:34.209Z,0.70
2023-10-29T12:01:01.611Z,0.80
2023-10-29T12:03:31.119Z,0.65
2023-10-29T12:05:59.007Z,0.60
2023-10-29T12:08:31.692Z,0.93
2023-10-29T12:10:59.631Z,0.60
2023-10-29T12:13:27.145Z,1.17
2023-10-29T12:15:58.498Z,0.65
2023-10-29T12:18:26.796Z,0.80
2023-10-29T12:21:06.461Z,0.93
2023-10-29T12:23:34.065Z,1.30
2023-10-29T12:26:05.642Z,0.73
2023-10-29T12:28:39.608Z,0.77
2023-10-29T12:31:10.329Z,0.70
2023-10-29T12:33:38.439Z,1.25
2023-10-29T12:36:07.265Z,1.25
2023-10-29T12:38:39.625Z,0.70
2023-10-29T12:41:10.153Z,0.90
2023-10-29T12:43:38.502Z,0.63
2023-10-29T12:46:06.786Z,0.60
2023-10-29T12:48:34.558Z,0.77
2023-10-29T12:51:03.477Z,0.60
2023-10-29T12:53:34.068Z,0.45
2023-10-29T12:56:03.007Z,0.88
2023-10-29T12:58:30.460Z,0.70
2023-10-29T13:00:58.986Z,1.50
2023-10-29T13:03:26.582Z,1.30
2023-10-29T13:05:56.177Z,1.17
2023-10-29T13:08:27.226Z,1.45
2023-10-29T13:10:54.687Z,0.57
2023-10-29T13:13:25.652Z,0.90
2023-10-29T13:15:53.263Z,0.50
2023-10-29T13:18:21.069Z,0.57
2023-10-29T13:20:49.193Z,0.70
2023-10-29T13:23:16.691Z,0.68
2023-10-29T13:25:44.203Z,0.70
2023-10-29T13:28:11.831Z,0.80
2023-10-29T13:30:39.195Z,0.80
2023-10-29T13:33:06.809Z,1.27
2023-10-29T13:35:34.239Z,0.60
2023-10-29T13:38:01.663Z,0.88
2023-10-29T13:40:29.189Z,1.45
2023-10-29T13:42:56.599Z,1.67
2023-10-29T13:45:24.101Z,3.80
2023-10-29T13:47:51.572Z,12.20
2023-10-29T13:50:19.027Z,1.80
2023-10-29T13:52:46.436Z,3.53
2023-10-29T13:55:13.962Z,1.30
2023-10-29T13:57:42.043Z,2.70
2023-10-29T14:00:10.291Z,1.30
2023-10-29T14:02:38.133Z,1.17
2023-10-29T14:05:07.656Z,1.20
2023-10-29T14:07:35.090Z,1.10
2023-10-29T14:10:02.444Z,0.95
2023-10-29T14:12:29.882Z,0.90
2023-10-29T14:14:58.209Z,0.90
2023-10-29T14:17:25.910Z,3.22
2023-10-29T14:19:53.338Z,2.45
2023-10-29T14:22:20.774Z,1.80
2023-10-29T14:24:49.670Z,0.93
2023-10-29T14:27:17.080Z,0.75
2023-10-29T14:29:45.126Z,1.05
2023-10-29T14:32:12.870Z,1.15
2023-10-29T14:34:40.720Z,0.90
2023-10-29T14:37:08.090Z,4.00
2023-10-29T14:39:35.713Z,3.53
2023-10-29T14:42:03.173Z,1.80
2023-10-29T14:44:33.498Z,3.67
2023-10-29T14:47:01.224Z,2.72
2023-10-29T14:49:28.644Z,2.30
2023-10-29T14:51:56.275Z,1.80
2023-10-29T14:54:26.482Z,1.70
2023-10-29T14:56:54.100Z,1.50
2023-10-29T14:59:21.519Z,1.08
2023-10-29T15:01:48.963Z,1.13
2023-10-29T15:04:16.468Z,1.00
2023-10-29T15:06:46.070Z,0.90
2023-10-29T15:09:14.194Z,1.60
2023-10-29T15:11:41.633Z,1.00
2023-10-29T15:14:09.036Z,1.60
2023-10-29T15:16:36.666Z,1.23
2023-10-29T15:19:06.791Z,1.20
2023-10-29T15:21:34.620Z,1.60
2023-10-29T15:24:02.584Z,2.00
2023-10-29T15:26:30.099Z,1.63
2023-10-29T15:28:57.612Z,1.90
2023-10-29T15:31:24.988Z,0.80
2023-10-29T15:33:52.357Z,1.17
2023-10-29T15:36:19.763Z,1.00
2023-10-29T15:38:47.272Z,1.17
2023-10-29T15:41:14.848Z,1.15
2023-10-29T15:43:42.216Z,1.45
2023-10-29T15:46:12.647Z,0.80
2023-10-29T15:48:40.154Z,0.98
2023-10-29T15:51:09.958Z,0.90
2023-10-29T15:53:37.600Z,1.92
2023-10-29T15:56:11.401Z,2.08
2023-10-29T15:58:38.839Z,2.90
2023-10-29T16:01:06.260Z,1.20
2023-10-29T16:03:33.693Z,1.30
2023-10-29T16:06:11.292Z,0.90
2023-10-29T16:08:40.169Z,1.50
2023-10-29T16:11:11.126Z,1.42
2023-10-29T16:13:38.585Z,2.17
2023-10-29T16:16:06.259Z,1.70
2023-10-29T16:18:33.824Z,1.50
2023-10-29T16:21:01.362Z,1.65
2023-10-29T16:23:28.969Z,2.00
2023-10-29T16:25:56.441Z,1.80
2023-10-29T16:28:23.924Z,1.42
2023-10-29T16:30:51.302Z,1.20
2023-10-29T16:33:18.723Z,1.50
2023-10-29T16:35:46.178Z,1.40
2023-10-29T16:38:13.593Z,1.40
2023-10-29T16:40:44.388Z,1.02
2023-10-29T16:43:12.190Z,1.10
2023-10-29T16:45:40.058Z,0.63
2023-10-29T16:48:08.242Z,1.13
2023-10-29T16:50:52.389Z,0.80
2023-10-29T16:53:27.145Z,1.00
2023-10-29T16:55:54.481Z,1.00
2023-10-29T16:58:22.041Z,0.70
2023-10-29T17:00:49.474Z,0.88
2023-10-29T17:03:17.010Z,0.32
2023-10-29T17:05:44.538Z,1.00
2023-10-29T17:08:12.131Z,0.77
2023-10-29T17:10:40.386Z,0.70
2023-10-29T17:13:07.787Z,0.73
2023-10-29T17:15:35.148Z,1.05
2023-10-29T17:18:02.597Z,2.03
2023-10-29T17:20:30.358Z,1.30
2023-10-29T17:22:57.719Z,1.15
2023-10-29T17:25:25.088Z,0.43
2023-10-29T17:27:52.615Z,0.50
2023-10-29T17:30:20.077Z,0.45
2023-10-29T17:32:47.598Z,0.40
2023-10-29T17:35:15.009Z,0.20
2023-10-29T17:37:42.379Z,0.60
2023-10-29T17:40:10.050Z,0.68
2023-10-29T17:42:37.692Z,0.70
2023-10-29T17:45:05.303Z,0.50
2023-10-29T17:47:32.763Z,0.60
2023-10-29T17:50:00.139Z,0.80
2023-10-29T17:52:27.744Z,0.52
2023-10-29T17:54:55.345Z,0.47
2023-10-29T17:57:22.893Z,0.20
2023-10-29T17:59:50.331Z,0.65
2023-10-29T18:02:17.782Z,0.47
2023-10-29T18:04:45.148Z,0.73
2023-10-29T18:07:13.441Z,0.40
2023-10-29T18:09:40.946Z,0.35
2023-10-29T18:12:08.639Z,0.50
2023-10-29T18:14:37.596Z,0.40
2023-10-29T18:17:05.132Z,0.38
2023-10-29T18:19:32.509Z,0.40
2023-10-29T18:21:59.950Z,0.22
2023-10-29T18:24:27.331Z,0.20
2023-10-29T18:26:55.010Z,0.30
2023-10-29T18:29:22.435Z,1.00
2023-10-29T18:31:49.846Z,0.30
2023-10-29T18:34:17.285Z,0.30
2023-10-29T18:36:44.659Z,0.30
2023-10-29T18:39:12.071Z,0.10
2023-10-29T18:41:39.485Z,0.17
2023-10-29T18:44:08.162Z,0.30
2023-10-29T18:46:35.755Z,0.38
2023-10-29T18:49:03.255Z,0.50
2023-10-29T18:51:30.994Z,0.30
2023-10-29T18:53:59.012Z,0.30
2023-10-29T18:56:26.438Z,0.40
2023-10-29T18:58:57.171Z,0.30
2023-10-29T19:01:24.651Z,0.40
2023-10-29T19:03:52.166Z,0.40
2023-10-29T19:06:19.793Z,0.25
2023-10-29T19:08:47.178Z,0.30
2023-10-29T19:11:14.561Z,0.45
2023-10-29T19:13:42.008Z,0.25
2023-10-29T19:16:09.575Z,0.30
2023-10-29T19:18:37.125Z,0.35
2023-10-29T19:21:04.696Z,0.38
2023-10-29T19:23:33.194Z,0.30
2023-10-29T19:26:02.694Z,0.40
2023-10-29T19:28:30.115Z,0.50
2023-10-29T19:31:20.423Z,0.47
2023-10-29T19:33:44.872Z,0.80
2023-10-29T19:36:13.444Z,1.50
2023-10-29T19:38:42.422Z,0.30
2023-10-29T19:41:10.244Z,0.40
2023-10-29T19:43:37.660Z,0.85
2023-10-29T19:46:05.568Z,0.50
2023-10-29T19:48:33.110Z,0.52
2023-10-29T19:51:00.664Z,0.57
2023-10-29T19:53:28.665Z,0.50
2023-10-29T19:55:57.084Z,0.85
2023-10-29T19:58:24.756Z,0.55
2023-10-29T20:00:52.904Z,0.65
2023-10-29T20:03:20.374Z,0.57
2023-10-29T20:05:47.800Z,0.57
2023-10-29T20:08:17.047Z,0.40
2023-10-29T20:10:45.147Z,0.90
2023-10-29T20:13:12.574Z,0.30
2023-10-29T20:15:40.057Z,0.60
2023-10-29T20:18:07.586Z,0.90
2023-10-29T20:20:36.882Z,0.47
2023-10-29T20:23:05.369Z,0.82
2023-10-29T20:25:33.027Z,0.70
2023-10-29T20:28:00.454Z,0.38
2023-10-29T20:30:27.947Z,0.35
2023-10-29T20:32:55.495Z,0.43
2023-10-29T20:35:23.089Z,0.50
2023-10-29T20:37:50.458Z,0.60
2023-10-29T20:40:18.603Z,0.40
2023-10-29T20:42:46.110Z,0.40
2023-10-29T20:45:13.576Z,0.50
2023-10-29T20:47:41.155Z,0.80
2023-10-29T20:50:10.862Z,0.60
2023-10-29T20:52:38.290Z,0.50
2023-10-29T20:55:07.127Z,0.45
2023-10-29T20:57:34.952Z,0.35
2023-10-29T21:00:06.084Z,0.50
2023-10-29T21:02:33.764Z,0.70
2023-10-29T21:05:01.453Z,0.50
2023-10-29T21:07:29.110Z,0.40
2023-10-29T21:09:56.502Z,0.50
2023-10-29T21:12:24.093Z,0.60
2023-10-29T21:14:51.533Z,0.40
2023-10-29T21:17:19.024Z,0.50
2023-10-29T21:19:46.846Z,0.50
2023-10-29T21:22:14.407Z,0.45
2023-10-29T21:24:42.117Z,0.65
2023-10-29T21:27:09.675Z,0.60
2023-10-29T21:29:37.087Z,0.70
2023-10-29T21:32:04.567Z,0.93
2023-10-29T21:34:31.998Z,0.73
2023-10-29T21:36:59.390Z,0.50
2023-10-29T21:39:26.877Z,0.60
2023-10-29T21:41:54.541Z,0.60
2023-10-29T21:44:21.939Z,0.50
2023-10-29T21:46:49.363Z,0.50
2023-10-29T21:49:17.563Z,0.52
2023-10-29T21:51:44.941Z,0.50
2023-10-29T21:54:12.348Z,0.57
2023-10-29T21:56:39.903Z,0.52
2023-10-29T21:59:07.325Z,0.60
2023-10-29T22:01:34.735Z,0.30
2023-10-29T22:04:02.312Z,0.70
2023-10-29T22:06:30.035Z,0.50
2023-10-29T22:08:57.563Z,0.57
2023-10-29T22:11:24.919Z,1.48
2023-10-29T22:13:52.507Z,0.77
2023-10-29T22:16:20.570Z,0.65
2023-10-29T22:18:48.079Z,0.70
2023-10-29T22:21:15.535Z,0.60
2023-10-29T22:23:43.131Z,0.60
2023-10-29T22:26:10.810Z,0.50
2023-10-29T22:28:38.543Z,0.70
2023-10-29T22:31:06.307Z,0.77
2023-10-29T22:33:35.049Z,0.63
2023-10-29T22:36:06.488Z,0.70
2023-10-29T22:38:34.664Z,0.82
2023-10-29T22:41:05.422Z,1.25
2023-10-29T22:43:34.155Z,0.73
2023-10-29T22:46:01.881Z,0.50
2023-10-29T22:48:29.822Z,0.50
2023-10-29T22:50:57.375Z,0.75
2023-10-29T22:53:24.788Z,0.80
2023-10-29T22:55:52.204Z,0.50
2023-10-29T22:58:19.648Z,0.65
2023-10-29T23:00:47.107Z,0.75
2023-10-29T23:03:14.752Z,0.70
2023-10-29T23:05:42.292Z,0.60
2023-10-29T23:08:09.843Z,0.70
2023-10-29T23:10:37.584Z,0.73
2023-10-29T23:13:06.480Z,0.40
2023-10-29T23:15:34.558Z,0.70
2023-10-29T23:18:02.814Z,0.88
2023-10-29T23:20:30.268Z,0.70
2023-10-29T23:22:57.805Z,0.60
2023-10-29T23:25:25.210Z,0.70
2023-10-29T23:27:52.585Z,0.80
2023-10-29T23:30:20.337Z,0.90
2023-10-29T23:32:48.021Z,0.88
2023-10-29T23:35:16.837Z,0.90
2023-10-29T23:37:44.223Z,0.88
2023-10-29T23:40:12.028Z,0.65
2023-10-29T23:42:39.724Z,0.80
2023-10-29T23:45:07.331Z,0.70
2023-10-29T23:47:34.789Z,0.70
2023-10-29T23:50:02.401Z,0.82
2023-10-29T23:52:30.683Z,0.63
2023-10-29T23:54:58.129Z,0.68
2023-10-29T23:57:27.932Z,0.95
2023-10-29T23:59:55.608Z,0.93
